SHT8H EGLL-EGPH
Flight info
| Callsign | SHT8H |
|---|---|
| Flight time | 0h 51m |
| Altitude | 34000 |
| Route | ULTIB1J ULTIB T420 TNT UN57 POL UN601 RIBEL DCT INPIP INPIP1E |
| Aircraft | A320/M-SDE3FGHIJ1RWXY/S |
Departure
| Time | 2026-05-07 13:51 |
|---|---|
| Airport | London Heathrow Airport (EGLL) |
Arrival
| Time | 2026-05-07 14:42 |
|---|---|
| Airport | Edinburgh Airport (EGPH) |
| Time | Latitude | Longitude | Altitude | Speed | Heading |
|---|---|---|---|---|---|
| 2026-05-07 13:05 | 51.47315 | -0.48603 | 87 ft | 0 kts | 270° |
| 2026-05-07 13:40 | 51.47315 | -0.48584 | 91 ft | 4 kts | 270° |
| 2026-05-07 13:41 | 51.47315 | -0.48549 | 87 ft | 3 kts | 269° |
| 2026-05-07 13:41 | 51.47318 | -0.48507 | 87 ft | 4 kts | 249° |
| 2026-05-07 13:41 | 51.47332 | -0.48478 | 90 ft | 4 kts | 188° |
| 2026-05-07 13:41 | 51.47345 | -0.48476 | 88 ft | 0 kts | 180° |
| 2026-05-07 13:46 | 51.47339 | -0.48476 | 89 ft | 2 kts | 180° |
| 2026-05-07 13:46 | 51.47306 | -0.48476 | 88 ft | 3 kts | 179° |
| 2026-05-07 13:46 | 51.47265 | -0.48476 | 87 ft | 8 kts | 179° |
| 2026-05-07 13:46 | 51.47203 | -0.48475 | 87 ft | 10 kts | 179° |
| 2026-05-07 13:47 | 51.47125 | -0.48474 | 87 ft | 12 kts | 180° |
| 2026-05-07 13:47 | 51.47032 | -0.48474 | 87 ft | 14 kts | 180° |
| 2026-05-07 13:47 | 51.46934 | -0.48472 | 89 ft | 15 kts | 179° |
| 2026-05-07 13:47 | 51.46848 | -0.48471 | 87 ft | 6 kts | 180° |
| 2026-05-07 13:48 | 51.46804 | -0.48471 | 89 ft | 6 kts | 180° |
| 2026-05-07 13:48 | 51.46751 | -0.48470 | 87 ft | 9 kts | 180° |
| 2026-05-07 13:48 | 51.46679 | -0.48470 | 87 ft | 11 kts | 180° |
| 2026-05-07 13:48 | 51.46600 | -0.48470 | 88 ft | 10 kts | 180° |
| 2026-05-07 13:49 | 51.46529 | -0.48469 | 89 ft | 10 kts | 179° |
| 2026-05-07 13:49 | 51.46476 | -0.48401 | 89 ft | 11 kts | 101° |
| 2026-05-07 13:49 | 51.46481 | -0.48273 | 89 ft | 13 kts | 85° |
| 2026-05-07 13:49 | 51.46479 | -0.48121 | 87 ft | 15 kts | 89° |
| 2026-05-07 13:50 | 51.46480 | -0.47886 | 87 ft | 35 kts | 90° |
| 2026-05-07 13:50 | 51.46482 | -0.47142 | 87 ft | 97 kts | 90° |
| 2026-05-07 13:50 | 51.46487 | -0.45787 | 90 ft | 145 kts | 90° |
| 2026-05-07 13:50 | 51.46487 | -0.43981 | 267 ft | 168 kts | 91° |
| 2026-05-07 13:51 | 51.46487 | -0.42124 | 916 ft | 166 kts | 85° |
| 2026-05-07 13:51 | 51.46830 | -0.40405 | 1454 ft | 171 kts | 54° |
| 2026-05-07 13:51 | 51.47663 | -0.38850 | 1681 ft | 196 kts | 47° |
| 2026-05-07 13:51 | 51.48644 | -0.37186 | 2033 ft | 215 kts | 46° |
| 2026-05-07 13:52 | 51.49719 | -0.35339 | 2378 ft | 239 kts | 49° |
| 2026-05-07 13:52 | 51.50853 | -0.33226 | 2953 ft | 258 kts | 50° |
| 2026-05-07 13:52 | 51.52005 | -0.30923 | 3827 ft | 264 kts | 58° |
| 2026-05-07 13:52 | 51.52714 | -0.28216 | 4662 ft | 269 kts | 71° |
| 2026-05-07 13:53 | 51.53541 | -0.25508 | 5564 ft | 274 kts | 52° |
| 2026-05-07 13:53 | 51.54990 | -0.23525 | 6447 ft | 278 kts | 26° |
| 2026-05-07 13:53 | 51.56853 | -0.22736 | 7282 ft | 281 kts | 360° |
| 2026-05-07 13:53 | 51.58758 | -0.23317 | 8090 ft | 283 kts | 338° |
| 2026-05-07 13:54 | 51.60602 | -0.24470 | 8942 ft | 287 kts | 338° |
| 2026-05-07 13:54 | 51.62426 | -0.25625 | 9747 ft | 291 kts | 338° |
| 2026-05-07 13:54 | 51.64333 | -0.26829 | 10361 ft | 302 kts | 338° |
| 2026-05-07 13:54 | 51.66334 | -0.28222 | 10568 ft | 325 kts | 331° |
| 2026-05-07 13:55 | 51.68343 | -0.30120 | 10838 ft | 342 kts | 328° |
| 2026-05-07 13:55 | 51.70404 | -0.32113 | 11429 ft | 349 kts | 328° |
| 2026-05-07 13:55 | 51.72497 | -0.34137 | 12085 ft | 352 kts | 328° |
| 2026-05-07 13:55 | 51.74615 | -0.36179 | 12744 ft | 356 kts | 328° |
| 2026-05-07 13:56 | 51.76751 | -0.38239 | 13429 ft | 360 kts | 328° |
| 2026-05-07 13:56 | 51.78911 | -0.40330 | 14066 ft | 364 kts | 328° |
| 2026-05-07 13:56 | 51.81088 | -0.42445 | 14675 ft | 367 kts | 328° |
| 2026-05-07 13:56 | 51.83282 | -0.44576 | 15272 ft | 369 kts | 328° |
| 2026-05-07 13:57 | 51.85496 | -0.46725 | 15867 ft | 372 kts | 328° |
| 2026-05-07 13:57 | 51.87721 | -0.48883 | 16452 ft | 375 kts | 328° |
| 2026-05-07 13:57 | 51.89972 | -0.51070 | 17047 ft | 378 kts | 327° |
| 2026-05-07 13:57 | 51.92234 | -0.53277 | 17644 ft | 381 kts | 327° |
| 2026-05-07 13:58 | 51.94510 | -0.55504 | 18253 ft | 384 kts | 327° |
| 2026-05-07 13:58 | 51.96808 | -0.57751 | 18804 ft | 387 kts | 327° |
| 2026-05-07 13:58 | 51.99122 | -0.60011 | 19351 ft | 390 kts | 327° |
| 2026-05-07 13:58 | 52.01457 | -0.62294 | 19855 ft | 393 kts | 327° |
| 2026-05-07 13:59 | 52.03801 | -0.64589 | 20018 ft | 394 kts | 327° |
| 2026-05-07 13:59 | 52.06146 | -0.66886 | 20054 ft | 394 kts | 327° |
| 2026-05-07 13:59 | 52.08489 | -0.69192 | 20056 ft | 394 kts | 327° |
| 2026-05-07 13:59 | 52.10798 | -0.71469 | 20061 ft | 394 kts | 327° |
| 2026-05-07 14:00 | 52.13154 | -0.73793 | 20512 ft | 397 kts | 327° |
| 2026-05-07 14:00 | 52.15525 | -0.76131 | 21095 ft | 400 kts | 327° |
| 2026-05-07 14:00 | 52.17915 | -0.78486 | 21633 ft | 403 kts | 327° |
| 2026-05-07 14:00 | 52.20319 | -0.80863 | 22128 ft | 406 kts | 327° |
| 2026-05-07 14:01 | 52.22742 | -0.83263 | 22621 ft | 409 kts | 327° |
| 2026-05-07 14:01 | 52.25178 | -0.85684 | 23097 ft | 412 kts | 327° |
| 2026-05-07 14:01 | 52.27630 | -0.88126 | 23572 ft | 415 kts | 327° |
| 2026-05-07 14:01 | 52.30103 | -0.90586 | 23963 ft | 418 kts | 327° |
| 2026-05-07 14:02 | 52.32594 | -0.93062 | 24354 ft | 421 kts | 327° |
| 2026-05-07 14:02 | 52.35102 | -0.95550 | 24718 ft | 423 kts | 328° |
| 2026-05-07 14:02 | 52.37625 | -0.98054 | 25075 ft | 426 kts | 328° |
| 2026-05-07 14:02 | 52.40173 | -1.00593 | 25426 ft | 429 kts | 328° |
| 2026-05-07 14:03 | 52.42729 | -1.03151 | 25765 ft | 432 kts | 328° |
| 2026-05-07 14:03 | 52.45298 | -1.05731 | 26111 ft | 435 kts | 328° |
| 2026-05-07 14:03 | 52.47880 | -1.08329 | 26440 ft | 437 kts | 328° |
| 2026-05-07 14:03 | 52.50485 | -1.10959 | 26772 ft | 440 kts | 328° |
| 2026-05-07 14:04 | 52.53099 | -1.13598 | 27097 ft | 443 kts | 328° |
| 2026-05-07 14:04 | 52.55731 | -1.16252 | 27427 ft | 446 kts | 328° |
| 2026-05-07 14:04 | 52.58386 | -1.18926 | 27755 ft | 448 kts | 328° |
| 2026-05-07 14:04 | 52.61055 | -1.21612 | 28080 ft | 451 kts | 328° |
| 2026-05-07 14:05 | 52.63738 | -1.24313 | 28411 ft | 454 kts | 328° |
| 2026-05-07 14:05 | 52.66434 | -1.27035 | 28728 ft | 456 kts | 328° |
| 2026-05-07 14:05 | 52.69146 | -1.29782 | 29062 ft | 458 kts | 329° |
| 2026-05-07 14:05 | 52.71859 | -1.32538 | 29517 ft | 458 kts | 329° |
| 2026-05-07 14:06 | 52.74566 | -1.35294 | 30004 ft | 457 kts | 329° |
| 2026-05-07 14:06 | 52.77267 | -1.38051 | 30401 ft | 457 kts | 329° |
| 2026-05-07 14:06 | 52.79926 | -1.40770 | 30787 ft | 456 kts | 329° |
| 2026-05-07 14:06 | 52.82631 | -1.43537 | 31173 ft | 456 kts | 329° |
| 2026-05-07 14:07 | 52.85327 | -1.46299 | 31567 ft | 456 kts | 329° |
| 2026-05-07 14:07 | 52.88023 | -1.49067 | 31965 ft | 456 kts | 329° |
| 2026-05-07 14:07 | 52.90714 | -1.51829 | 32364 ft | 455 kts | 329° |
| 2026-05-07 14:07 | 52.93407 | -1.54594 | 32761 ft | 455 kts | 329° |
| 2026-05-07 14:08 | 52.96094 | -1.57364 | 33177 ft | 455 kts | 329° |
| 2026-05-07 14:08 | 52.98769 | -1.60126 | 33588 ft | 454 kts | 329° |
| 2026-05-07 14:08 | 53.01449 | -1.62900 | 33961 ft | 454 kts | 329° |
| 2026-05-07 14:09 | 53.07009 | -1.67991 | 34055 ft | 461 kts | 340° |
| 2026-05-07 14:09 | 53.13046 | -1.71727 | 34053 ft | 463 kts | 341° |
| 2026-05-07 14:10 | 53.19089 | -1.75472 | 34050 ft | 464 kts | 341° |
| 2026-05-07 14:10 | 53.25133 | -1.79233 | 34050 ft | 464 kts | 341° |
| 2026-05-07 14:11 | 53.31171 | -1.83006 | 34052 ft | 464 kts | 341° |
| 2026-05-07 14:11 | 53.37221 | -1.86795 | 34054 ft | 464 kts | 341° |
| 2026-05-07 14:12 | 53.43268 | -1.90595 | 34057 ft | 464 kts | 340° |
| 2026-05-07 14:12 | 53.49319 | -1.94409 | 34059 ft | 464 kts | 340° |
| 2026-05-07 14:13 | 53.55364 | -1.98234 | 34058 ft | 464 kts | 340° |
| 2026-05-07 14:13 | 53.61415 | -2.02068 | 34051 ft | 464 kts | 340° |
| 2026-05-07 14:14 | 53.67459 | -2.05903 | 34045 ft | 464 kts | 340° |
| 2026-05-07 14:14 | 53.73467 | -2.09746 | 34047 ft | 465 kts | 340° |
| 2026-05-07 14:15 | 53.79492 | -2.13711 | 34045 ft | 465 kts | 339° |
| 2026-05-07 14:15 | 53.85479 | -2.17851 | 34046 ft | 465 kts | 338° |
| 2026-05-07 14:16 | 53.91476 | -2.22010 | 34045 ft | 465 kts | 338° |
| 2026-05-07 14:16 | 53.97474 | -2.26143 | 34046 ft | 466 kts | 338° |
| 2026-05-07 14:17 | 54.03482 | -2.30262 | 34043 ft | 466 kts | 338° |
| 2026-05-07 14:17 | 54.09499 | -2.34407 | 34045 ft | 466 kts | 338° |
| 2026-05-07 14:18 | 54.15508 | -2.38566 | 34050 ft | 466 kts | 338° |
| 2026-05-07 14:18 | 54.21516 | -2.42746 | 34051 ft | 466 kts | 338° |
| 2026-05-07 14:19 | 54.27524 | -2.46938 | 34050 ft | 466 kts | 338° |
| 2026-05-07 14:19 | 54.33523 | -2.51136 | 34048 ft | 466 kts | 337° |
| 2026-05-07 14:20 | 54.39535 | -2.55345 | 34047 ft | 466 kts | 337° |
| 2026-05-07 14:20 | 54.45539 | -2.59560 | 34046 ft | 467 kts | 337° |
| 2026-05-07 14:21 | 54.51549 | -2.63814 | 34045 ft | 467 kts | 337° |
| 2026-05-07 14:21 | 54.57534 | -2.68067 | 34054 ft | 464 kts | 337° |
| 2026-05-07 14:22 | 54.63489 | -2.72290 | 34052 ft | 462 kts | 337° |
| 2026-05-07 14:22 | 54.69424 | -2.76514 | 34047 ft | 461 kts | 336° |
| 2026-05-07 14:23 | 54.75343 | -2.80758 | 34041 ft | 460 kts | 336° |
| 2026-05-07 14:23 | 54.81262 | -2.85007 | 33547 ft | 461 kts | 336° |
| 2026-05-07 14:23 | 54.84198 | -2.87119 | 32713 ft | 464 kts | 336° |
| 2026-05-07 14:24 | 54.87221 | -2.89296 | 31939 ft | 465 kts | 336° |
| 2026-05-07 14:24 | 54.90197 | -2.91440 | 31393 ft | 461 kts | 336° |
| 2026-05-07 14:24 | 54.93137 | -2.93560 | 30899 ft | 456 kts | 336° |
| 2026-05-07 14:24 | 54.96062 | -2.95675 | 30418 ft | 451 kts | 335° |
| 2026-05-07 14:25 | 54.98942 | -2.97762 | 29913 ft | 447 kts | 335° |
| 2026-05-07 14:25 | 55.01800 | -2.99835 | 29319 ft | 443 kts | 335° |
| 2026-05-07 14:25 | 55.04623 | -3.01885 | 28751 ft | 439 kts | 335° |
| 2026-05-07 14:25 | 55.07395 | -3.03904 | 28190 ft | 435 kts | 335° |
| 2026-05-07 14:26 | 55.10181 | -3.05942 | 27635 ft | 432 kts | 335° |
| 2026-05-07 14:26 | 55.12943 | -3.07968 | 27107 ft | 429 kts | 335° |
| 2026-05-07 14:26 | 55.15683 | -3.09979 | 26569 ft | 426 kts | 335° |
| 2026-05-07 14:26 | 55.18403 | -3.11978 | 26063 ft | 423 kts | 335° |
| 2026-05-07 14:27 | 55.21104 | -3.13965 | 25561 ft | 420 kts | 334° |
| 2026-05-07 14:27 | 55.23786 | -3.15938 | 25232 ft | 414 kts | 334° |
| 2026-05-07 14:27 | 55.26405 | -3.17863 | 25106 ft | 402 kts | 334° |
| 2026-05-07 14:27 | 55.28971 | -3.19541 | 24831 ft | 388 kts | 343° |
| 2026-05-07 14:28 | 55.31626 | -3.20133 | 24282 ft | 383 kts | 360° |
| 2026-05-07 14:28 | 55.34281 | -3.19765 | 23752 ft | 384 kts | 4° |
| 2026-05-07 14:28 | 55.36953 | -3.19328 | 23142 ft | 387 kts | 4° |
| 2026-05-07 14:28 | 55.39641 | -3.18903 | 22499 ft | 386 kts | 3° |
| 2026-05-07 14:29 | 55.42279 | -3.18489 | 21877 ft | 377 kts | 3° |
| 2026-05-07 14:29 | 55.44867 | -3.18083 | 21269 ft | 369 kts | 3° |
| 2026-05-07 14:29 | 55.46553 | -3.17820 | 20870 ft | 365 kts | 3° |
| 2026-05-07 14:29 | 55.49898 | -3.17296 | 20089 ft | 358 kts | 4° |
| 2026-05-07 14:30 | 55.52369 | -3.16909 | 19525 ft | 356 kts | 3° |
| 2026-05-07 14:30 | 55.54855 | -3.16520 | 18967 ft | 361 kts | 4° |
| 2026-05-07 14:30 | 55.57364 | -3.16128 | 18411 ft | 362 kts | 3° |
| 2026-05-07 14:30 | 55.59810 | -3.15744 | 17803 ft | 354 kts | 3° |
| 2026-05-07 14:31 | 55.62243 | -3.15357 | 17187 ft | 348 kts | 3° |
| 2026-05-07 14:31 | 55.64625 | -3.14979 | 16576 ft | 341 kts | 3° |
| 2026-05-07 14:31 | 55.66970 | -3.14608 | 15968 ft | 336 kts | 3° |
| 2026-05-07 14:31 | 55.69283 | -3.14241 | 15394 ft | 332 kts | 2° |
| 2026-05-07 14:32 | 55.71568 | -3.13877 | 14819 ft | 328 kts | 2° |
| 2026-05-07 14:32 | 55.73814 | -3.13834 | 14237 ft | 317 kts | 344° |
| 2026-05-07 14:32 | 55.75728 | -3.15431 | 13700 ft | 299 kts | 312° |
| 2026-05-07 14:32 | 55.77011 | -3.18209 | 13082 ft | 289 kts | 302° |
| 2026-05-07 14:33 | 55.78518 | -3.20560 | 12465 ft | 295 kts | 332° |
| 2026-05-07 14:33 | 55.80539 | -3.21201 | 11858 ft | 302 kts | 5° |
| 2026-05-07 14:33 | 55.81898 | -3.20502 | 11462 ft | 303 kts | 27° |
| 2026-05-07 14:33 | 55.83551 | -3.18231 | 10883 ft | 310 kts | 47° |
| 2026-05-07 14:34 | 55.84843 | -3.15125 | 10310 ft | 315 kts | 64° |
| 2026-05-07 14:34 | 55.85555 | -3.11462 | 9728 ft | 306 kts | 85° |
| 2026-05-07 14:34 | 55.85458 | -3.07771 | 9120 ft | 294 kts | 107° |
| 2026-05-07 14:34 | 55.85064 | -3.04302 | 8602 ft | 291 kts | 93° |
| 2026-05-07 14:35 | 55.85554 | -3.00842 | 8069 ft | 291 kts | 59° |
| 2026-05-07 14:35 | 55.86995 | -2.98434 | 7601 ft | 284 kts | 23° |
| 2026-05-07 14:35 | 55.88873 | -2.97845 | 7144 ft | 271 kts | 348° |
| 2026-05-07 14:35 | 55.90692 | -2.98510 | 6687 ft | 265 kts | 344° |
| 2026-05-07 14:36 | 55.92482 | -2.99224 | 6239 ft | 262 kts | 344° |
| 2026-05-07 14:36 | 55.94225 | -3.00056 | 5782 ft | 256 kts | 333° |
| 2026-05-07 14:36 | 55.95805 | -3.01461 | 5312 ft | 252 kts | 328° |
| 2026-05-07 14:36 | 55.97433 | -3.02604 | 4845 ft | 253 kts | 342° |
| 2026-05-07 14:37 | 55.99158 | -3.03178 | 4380 ft | 252 kts | 349° |
| 2026-05-07 14:37 | 56.02404 | -3.04854 | 3445 ft | 236 kts | 308° |
| 2026-05-07 14:37 | 56.03123 | -3.07327 | 3034 ft | 220 kts | 281° |
| 2026-05-07 14:38 | 56.03415 | -3.09867 | 2995 ft | 199 kts | 266° |
| 2026-05-07 14:38 | 56.03261 | -3.12183 | 3026 ft | 175 kts | 249° |
| 2026-05-07 14:38 | 56.02804 | -3.14027 | 2995 ft | 153 kts | 237° |
| 2026-05-07 14:38 | 56.02273 | -3.15641 | 2778 ft | 148 kts | 236° |
| 2026-05-07 14:39 | 56.01749 | -3.17213 | 2569 ft | 146 kts | 235° |
| 2026-05-07 14:39 | 56.01230 | -3.18763 | 2366 ft | 144 kts | 235° |
| 2026-05-07 14:39 | 56.00725 | -3.20271 | 2179 ft | 139 kts | 235° |
| 2026-05-07 14:39 | 56.00237 | -3.21720 | 1996 ft | 137 kts | 235° |
| 2026-05-07 14:40 | 55.99741 | -3.23194 | 1806 ft | 137 kts | 234° |
| 2026-05-07 14:40 | 55.99261 | -3.24622 | 1627 ft | 135 kts | 236° |
| 2026-05-07 14:40 | 55.98775 | -3.26062 | 1439 ft | 135 kts | 236° |
| 2026-05-07 14:40 | 55.98289 | -3.27505 | 1256 ft | 135 kts | 236° |
| 2026-05-07 14:41 | 55.97805 | -3.28939 | 1051 ft | 135 kts | 236° |
| 2026-05-07 14:41 | 55.97315 | -3.30390 | 854 ft | 135 kts | 235° |
| 2026-05-07 14:41 | 55.96828 | -3.31832 | 665 ft | 136 kts | 235° |
| 2026-05-07 14:41 | 55.96339 | -3.33280 | 479 ft | 137 kts | 236° |
| 2026-05-07 14:42 | 55.95850 | -3.34727 | 299 ft | 136 kts | 235° |
| 2026-05-07 14:42 | 55.95366 | -3.36160 | 118 ft | 133 kts | 235° |
| 2026-05-07 14:42 | 55.94935 | -3.37361 | 112 ft | 97 kts | 236° |
| 2026-05-07 14:42 | 55.94751 | -3.37970 | 115 ft | 23 kts | 242° |
| 2026-05-07 14:43 | 55.94692 | -3.38048 | 114 ft | 11 kts | 175° |
| 2026-05-07 14:43 | 55.94629 | -3.37989 | 114 ft | 8 kts | 148° |
| 2026-05-07 14:43 | 55.94592 | -3.37926 | 114 ft | 8 kts | 112° |
| 2026-05-07 14:43 | 55.94614 | -3.37818 | 113 ft | 12 kts | 58° |
| 2026-05-07 14:44 | 55.94663 | -3.37673 | 115 ft | 15 kts | 59° |
| 2026-05-07 14:44 | 55.94720 | -3.37505 | 115 ft | 17 kts | 59° |
| 2026-05-07 14:44 | 55.94784 | -3.37315 | 116 ft | 19 kts | 59° |
| 2026-05-07 14:44 | 55.94850 | -3.37120 | 115 ft | 13 kts | 58° |
| 2026-05-07 14:45 | 55.94897 | -3.36984 | 116 ft | 11 kts | 58° |
| 2026-05-07 14:45 | 55.94924 | -3.36856 | 116 ft | 10 kts | 103° |
| 2026-05-07 14:45 | 55.94896 | -3.36767 | 112 ft | 9 kts | 95° |
| 2026-05-07 14:45 | 55.94924 | -3.36660 | 115 ft | 10 kts | 55° |
| 2026-05-07 14:46 | 55.94953 | -3.36569 | 115 ft | 3 kts | 76° |
| 2026-05-07 14:46 | 55.94941 | -3.36533 | 116 ft | 4 kts | 136° |
| 2026-05-07 14:46 | 55.94924 | -3.36515 | 115 ft | 2 kts | 149° |
| 2026-05-07 14:46 | 55.94913 | -3.36503 | 114 ft | 1 kts | 149° |
| 2026-05-07 14:47 | 55.94908 | -3.36498 | 113 ft | 1 kts | 149° |
| 2026-05-07 14:47 | 55.94902 | -3.36491 | 114 ft | 1 kts | 149° |
| 2026-05-07 14:47 | 55.94901 | -3.36491 | 114 ft | 0 kts | 148° |